sensor_id;sensor_type;location;lat;lon;timestamp;P1;durP1;ratioP1;P2;durP2;ratioP2
69951;SDS011;60406;48.408;13.392;2022-11-24T00:02:07;32.13;;;22.83;;
69951;SDS011;60406;48.408;13.392;2022-11-24T00:07:08;29.70;;;21.88;;
69951;SDS011;60406;48.408;13.392;2022-11-24T00:12:08;28.88;;;20.45;;
69951;SDS011;60406;48.408;13.392;2022-11-24T00:17:30;24.45;;;19.30;;
69951;SDS011;60406;48.408;13.392;2022-11-24T00:22:31;25.48;;;18.67;;
69951;SDS011;60406;48.408;13.392;2022-11-24T00:27:32;24.02;;;17.35;;
69951;SDS011;60406;48.408;13.392;2022-11-24T00:32:33;20.85;;;16.58;;
69951;SDS011;60406;48.408;13.392;2022-11-24T00:37:34;18.23;;;14.25;;
69951;SDS011;60406;48.408;13.392;2022-11-24T00:42:35;20.77;;;14.88;;
69951;SDS011;60406;48.408;13.392;2022-11-24T00:47:35;17.52;;;12.85;;
69951;SDS011;60406;48.408;13.392;2022-11-24T00:52:36;19.63;;;14.93;;
69951;SDS011;60406;48.408;13.392;2022-11-24T00:57:38;15.07;;;13.30;;
69951;SDS011;60406;48.408;13.392;2022-11-24T01:02:38;17.30;;;13.73;;
69951;SDS011;60406;48.408;13.392;2022-11-24T01:08:00;12.52;;;11.23;;
69951;SDS011;60406;48.408;13.392;2022-11-24T01:13:00;13.73;;;10.77;;
69951;SDS011;60406;48.408;13.392;2022-11-24T01:18:02;12.60;;;10.73;;
69951;SDS011;60406;48.408;13.392;2022-11-24T01:23:23;12.93;;;10.93;;
69951;SDS011;60406;48.408;13.392;2022-11-24T01:28:24;15.40;;;11.60;;
69951;SDS011;60406;48.408;13.392;2022-11-24T01:33:25;14.13;;;11.95;;
69951;SDS011;60406;48.408;13.392;2022-11-24T01:38:46;11.88;;;10.43;;
69951;SDS011;60406;48.408;13.392;2022-11-24T01:43:47;14.27;;;10.32;;
69951;SDS011;60406;48.408;13.392;2022-11-24T01:49:10;14.02;;;10.05;;
69951;SDS011;60406;48.408;13.392;2022-11-24T01:54:21;12.10;;;9.43;;
69951;SDS011;60406;48.408;13.392;2022-11-24T01:59:25;15.73;;;12.02;;
69951;SDS011;60406;48.408;13.392;2022-11-24T02:04:26;14.18;;;10.75;;
69951;SDS011;60406;48.408;13.392;2022-11-24T02:09:31;13.27;;;10.95;;
69951;SDS011;60406;48.408;13.392;2022-11-24T02:14:36;15.90;;;11.90;;
69951;SDS011;60406;48.408;13.392;2022-11-24T02:25:30;43.10;;;19.08;;
69951;SDS011;60406;48.408;13.392;2022-11-24T02:30:35;26.60;;;16.75;;
69951;SDS011;60406;48.408;13.392;2022-11-24T02:35:36;20.58;;;13.63;;
69951;SDS011;60406;48.408;13.392;2022-11-24T02:40:37;14.27;;;12.20;;
69951;SDS011;60406;48.408;13.392;2022-11-24T02:45:39;14.13;;;11.68;;
69951;SDS011;60406;48.408;13.392;2022-11-24T02:50:40;13.20;;;10.80;;
69951;SDS011;60406;48.408;13.392;2022-11-24T02:55:41;17.20;;;11.63;;
69951;SDS011;60406;48.408;13.392;2022-11-24T03:00:42;16.40;;;12.10;;
69951;SDS011;60406;48.408;13.392;2022-11-24T03:05:43;18.17;;;12.60;;
69951;SDS011;60406;48.408;13.392;2022-11-24T03:10:44;17.23;;;13.93;;
69951;SDS011;60406;48.408;13.392;2022-11-24T03:15:44;19.60;;;13.45;;
69951;SDS011;60406;48.408;13.392;2022-11-24T03:21:06;18.67;;;12.07;;
69951;SDS011;60406;48.408;13.392;2022-11-24T03:26:07;18.40;;;14.05;;
69951;SDS011;60406;48.408;13.392;2022-11-24T03:31:09;15.38;;;12.77;;
69951;SDS011;60406;48.408;13.392;2022-11-24T03:36:31;19.23;;;13.43;;
69951;SDS011;60406;48.408;13.392;2022-11-24T03:41:32;19.08;;;14.43;;
69951;SDS011;60406;48.408;13.392;2022-11-24T03:46:33;18.08;;;14.77;;
69951;SDS011;60406;48.408;13.392;2022-11-24T03:51:54;18.10;;;14.43;;
69951;SDS011;60406;48.408;13.392;2022-11-24T03:56:55;18.45;;;14.95;;
69951;SDS011;60406;48.408;13.392;2022-11-24T04:01:55;20.40;;;14.80;;
69951;SDS011;60406;48.408;13.392;2022-11-24T04:07:17;19.83;;;15.15;;
69951;SDS011;60406;48.408;13.392;2022-11-24T04:12:17;22.67;;;13.88;;
69951;SDS011;60406;48.408;13.392;2022-11-24T04:17:18;19.98;;;14.27;;
69951;SDS011;60406;48.408;13.392;2022-11-24T04:22:19;19.55;;;13.15;;
69951;SDS011;60406;48.408;13.392;2022-11-24T04:27:20;18.75;;;13.15;;
69951;SDS011;60406;48.408;13.392;2022-11-24T04:32:21;21.83;;;15.77;;
69951;SDS011;60406;48.408;13.392;2022-11-24T04:37:22;21.90;;;16.60;;
69951;SDS011;60406;48.408;13.392;2022-11-24T04:42:43;31.10;;;18.92;;
69951;SDS011;60406;48.408;13.392;2022-11-24T04:47:51;31.30;;;21.45;;
69951;SDS011;60406;48.408;13.392;2022-11-24T04:53:13;32.67;;;23.50;;
69951;SDS011;60406;48.408;13.392;2022-11-24T04:58:13;26.65;;;22.45;;
69951;SDS011;60406;48.408;13.392;2022-11-24T05:03:14;34.05;;;25.63;;
69951;SDS011;60406;48.408;13.392;2022-11-24T05:08:35;44.35;;;33.03;;
69951;SDS011;60406;48.408;13.392;2022-11-24T05:13:36;30.10;;;22.02;;
69951;SDS011;60406;48.408;13.392;2022-11-24T05:18:37;29.15;;;23.55;;
69951;SDS011;60406;48.408;13.392;2022-11-24T05:23:38;37.03;;;24.00;;
69951;SDS011;60406;48.408;13.392;2022-11-24T05:28:39;28.55;;;21.65;;
69951;SDS011;60406;48.408;13.392;2022-11-24T05:33:40;25.27;;;17.35;;
69951;SDS011;60406;48.408;13.392;2022-11-24T05:38:41;26.52;;;16.77;;
69951;SDS011;60406;48.408;13.392;2022-11-24T05:43:41;24.25;;;15.80;;
69951;SDS011;60406;48.408;13.392;2022-11-24T05:48:42;23.38;;;13.98;;
69951;SDS011;60406;48.408;13.392;2022-11-24T05:53:43;15.93;;;9.20;;
69951;SDS011;60406;48.408;13.392;2022-11-24T05:59:04;18.05;;;7.85;;
69951;SDS011;60406;48.408;13.392;2022-11-24T06:04:05;13.98;;;5.95;;
69951;SDS011;60406;48.408;13.392;2022-11-24T06:09:06;11.95;;;4.90;;
69951;SDS011;60406;48.408;13.392;2022-11-24T06:14:27;17.20;;;3.97;;
69951;SDS011;60406;48.408;13.392;2022-11-24T06:19:28;9.80;;;3.00;;
69951;SDS011;60406;48.408;13.392;2022-11-24T06:24:29;17.13;;;4.72;;
69951;SDS011;60406;48.408;13.392;2022-11-24T06:29:50;12.05;;;2.35;;
69951;SDS011;60406;48.408;13.392;2022-11-24T06:34:51;13.95;;;2.78;;
69951;SDS011;60406;48.408;13.392;2022-11-24T06:39:52;17.63;;;10.68;;
69951;SDS011;60406;48.408;13.392;2022-11-24T06:44:53;25.30;;;14.43;;
69951;SDS011;60406;48.408;13.392;2022-11-24T06:49:54;25.00;;;19.38;;
69951;SDS011;60406;48.408;13.392;2022-11-24T06:54:55;50.78;;;29.60;;
69951;SDS011;60406;48.408;13.392;2022-11-24T06:59:55;46.90;;;26.33;;
69951;SDS011;60406;48.408;13.392;2022-11-24T07:05:17;29.33;;;19.45;;
69951;SDS011;60406;48.408;13.392;2022-11-24T07:10:17;41.67;;;23.92;;
69951;SDS011;60406;48.408;13.392;2022-11-24T07:15:18;28.20;;;18.48;;
69951;SDS011;60406;48.408;13.392;2022-11-24T07:20:39;20.55;;;13.27;;
69951;SDS011;60406;48.408;13.392;2022-11-24T07:25:40;23.70;;;13.18;;
69951;SDS011;60406;48.408;13.392;2022-11-24T07:30:41;20.52;;;13.95;;
69951;SDS011;60406;48.408;13.392;2022-11-24T07:36:03;28.92;;;19.15;;
69951;SDS011;60406;48.408;13.392;2022-11-24T07:41:06;24.10;;;15.13;;
69951;SDS011;60406;48.408;13.392;2022-11-24T07:51:31;66.38;;;38.78;;
69951;SDS011;60406;48.408;13.392;2022-11-24T07:56:32;46.72;;;27.70;;
69951;SDS011;60406;48.408;13.392;2022-11-24T08:01:32;23.02;;;13.73;;
69951;SDS011;60406;48.408;13.392;2022-11-24T08:06:54;21.88;;;15.35;;
69951;SDS011;60406;48.408;13.392;2022-11-24T08:11:54;46.85;;;28.50;;
69951;SDS011;60406;48.408;13.392;2022-11-24T08:16:56;45.55;;;27.17;;
69951;SDS011;60406;48.408;13.392;2022-11-24T08:22:17;16.65;;;9.35;;
69951;SDS011;60406;48.408;13.392;2022-11-24T08:27:18;14.70;;;7.63;;
69951;SDS011;60406;48.408;13.392;2022-11-24T08:32:19;21.35;;;9.18;;
69951;SDS011;60406;48.408;13.392;2022-11-24T08:37:20;17.65;;;10.25;;
69951;SDS011;60406;48.408;13.392;2022-11-24T08:42:21;19.73;;;12.52;;
69951;SDS011;60406;48.408;13.392;2022-11-24T08:47:22;16.35;;;11.80;;
69951;SDS011;60406;48.408;13.392;2022-11-24T08:52:22;18.40;;;10.13;;
69951;SDS011;60406;48.408;13.392;2022-11-24T08:57:44;30.38;;;18.27;;
69951;SDS011;60406;48.408;13.392;2022-11-24T09:02:44;17.20;;;8.73;;
69951;SDS011;60406;48.408;13.392;2022-11-24T09:07:45;10.65;;;4.47;;
69951;SDS011;60406;48.408;13.392;2022-11-24T09:13:06;11.30;;;4.15;;
69951;SDS011;60406;48.408;13.392;2022-11-24T09:18:07;10.35;;;5.43;;
69951;SDS011;60406;48.408;13.392;2022-11-24T09:23:08;13.52;;;8.32;;
69951;SDS011;60406;48.408;13.392;2022-11-24T09:28:29;16.77;;;8.80;;
69951;SDS011;60406;48.408;13.392;2022-11-24T09:33:30;13.82;;;6.57;;
69951;SDS011;60406;48.408;13.392;2022-11-24T09:38:31;14.10;;;5.43;;
69951;SDS011;60406;48.408;13.392;2022-11-24T09:43:40;8.90;;;3.60;;
69951;SDS011;60406;48.408;13.392;2022-11-24T09:48:54;10.77;;;4.35;;
69951;SDS011;60406;48.408;13.392;2022-11-24T09:53:59;15.00;;;4.35;;
69951;SDS011;60406;48.408;13.392;2022-11-24T09:59:23;6.47;;;3.30;;
69951;SDS011;60406;48.408;13.392;2022-11-24T10:04:33;10.13;;;4.25;;
69951;SDS011;60406;48.408;13.392;2022-11-24T10:09:37;10.00;;;4.28;;
69951;SDS011;60406;48.408;13.392;2022-11-24T10:20:39;11.43;;;5.53;;
69951;SDS011;60406;48.408;13.392;2022-11-24T10:25:45;8.80;;;4.38;;
69951;SDS011;60406;48.408;13.392;2022-11-24T10:30:49;9.30;;;4.32;;
69951;SDS011;60406;48.408;13.392;2022-11-24T10:36:32;10.25;;;3.95;;
69951;SDS011;60406;48.408;13.392;2022-11-24T10:47:20;7.10;;;3.60;;
69951;SDS011;60406;48.408;13.392;2022-11-24T10:52:21;7.40;;;3.33;;
69951;SDS011;60406;48.408;13.392;2022-11-24T10:57:26;9.88;;;4.45;;
69951;SDS011;60406;48.408;13.392;2022-11-24T11:07:29;11.32;;;4.60;;
69951;SDS011;60406;48.408;13.392;2022-11-24T11:12:30;21.88;;;10.55;;
69951;SDS011;60406;48.408;13.392;2022-11-24T11:17:32;9.20;;;3.53;;
69951;SDS011;60406;48.408;13.392;2022-11-24T11:22:35;9.52;;;4.32;;
69951;SDS011;60406;48.408;13.392;2022-11-24T11:28:10;9.70;;;3.97;;
69951;SDS011;60406;48.408;13.392;2022-11-24T11:33:36;14.15;;;5.00;;
69951;SDS011;60406;48.408;13.392;2022-11-24T11:38:37;25.00;;;12.43;;
69951;SDS011;60406;48.408;13.392;2022-11-24T11:43:38;23.52;;;11.13;;
69951;SDS011;60406;48.408;13.392;2022-11-24T11:49:00;19.85;;;8.52;;
69951;SDS011;60406;48.408;13.392;2022-11-24T11:54:07;19.20;;;6.90;;
69951;SDS011;60406;48.408;13.392;2022-11-24T12:20:33;16.45;;;5.38;;
69951;SDS011;60406;48.408;13.392;2022-11-24T12:25:41;11.85;;;2.70;;
69951;SDS011;60406;48.408;13.392;2022-11-24T12:30:49;13.80;;;4.22;;
69951;SDS011;60406;48.408;13.392;2022-11-24T12:36:29;15.25;;;4.38;;
69951;SDS011;60406;48.408;13.392;2022-11-24T13:03:56;20.13;;;5.30;;
69951;SDS011;60406;48.408;13.392;2022-11-24T13:09:12;14.73;;;3.83;;
69951;SDS011;60406;48.408;13.392;2022-11-24T13:14:23;10.00;;;3.08;;
69951;SDS011;60406;48.408;13.392;2022-11-24T13:19:32;6.70;;;1.88;;
69951;SDS011;60406;48.408;13.392;2022-11-24T13:24:35;1.83;;;0.32;;
69951;SDS011;60406;48.408;13.392;2022-11-24T13:29:37;5.03;;;2.00;;
69951;SDS011;60406;48.408;13.392;2022-11-24T13:40:01;2.80;;;2.00;;
69951;SDS011;60406;48.408;13.392;2022-11-24T13:45:46;5.05;;;2.50;;
69951;SDS011;60406;48.408;13.392;2022-11-24T13:55:53;4.45;;;2.75;;
69951;SDS011;60406;48.408;13.392;2022-11-24T14:01:18;11.60;;;3.08;;
69951;SDS011;60406;48.408;13.392;2022-11-24T14:06:27;9.68;;;3.47;;
69951;SDS011;60406;48.408;13.392;2022-11-24T14:11:30;2.85;;;1.88;;
69951;SDS011;60406;48.408;13.392;2022-11-24T14:16:31;22.90;;;4.55;;
69951;SDS011;60406;48.408;13.392;2022-11-24T14:21:35;4.20;;;1.55;;
69951;SDS011;60406;48.408;13.392;2022-11-24T14:26:58;2.15;;;1.50;;
69951;SDS011;60406;48.408;13.392;2022-11-24T14:32:00;6.50;;;2.83;;
69951;SDS011;60406;48.408;13.392;2022-11-24T14:37:03;4.03;;;2.23;;
69951;SDS011;60406;48.408;13.392;2022-11-24T14:42:24;4.43;;;3.70;;
69951;SDS011;60406;48.408;13.392;2022-11-24T14:47:29;4.57;;;3.22;;
69951;SDS011;60406;48.408;13.392;2022-11-24T14:52:53;7.90;;;5.55;;
69951;SDS011;60406;48.408;13.392;2022-11-24T14:57:55;10.00;;;5.05;;
69951;SDS011;60406;48.408;13.392;2022-11-24T15:08:21;6.53;;;2.35;;
69951;SDS011;60406;48.408;13.392;2022-11-24T15:13:23;3.58;;;2.67;;
69951;SDS011;60406;48.408;13.392;2022-11-24T15:18:31;5.70;;;3.67;;
69951;SDS011;60406;48.408;13.392;2022-11-24T15:23:37;8.55;;;5.22;;
69951;SDS011;60406;48.408;13.392;2022-11-24T15:28:59;8.05;;;4.00;;
69951;SDS011;60406;48.408;13.392;2022-11-24T15:34:00;10.65;;;4.55;;
69951;SDS011;60406;48.408;13.392;2022-11-24T15:39:01;10.98;;;6.00;;
69951;SDS011;60406;48.408;13.392;2022-11-24T15:44:22;7.80;;;3.63;;
69951;SDS011;60406;48.408;13.392;2022-11-24T15:49:23;8.70;;;4.68;;
69951;SDS011;60406;48.408;13.392;2022-11-24T15:54:24;7.20;;;4.13;;
69951;SDS011;60406;48.408;13.392;2022-11-24T15:59:45;7.55;;;4.10;;
69951;SDS011;60406;48.408;13.392;2022-11-24T16:04:46;14.77;;;2.60;;
69951;SDS011;60406;48.408;13.392;2022-11-24T16:09:48;6.35;;;2.25;;
69951;SDS011;60406;48.408;13.392;2022-11-24T16:14:48;7.22;;;3.00;;
69951;SDS011;60406;48.408;13.392;2022-11-24T16:19:49;3.95;;;1.80;;
69951;SDS011;60406;48.408;13.392;2022-11-24T16:24:50;7.07;;;3.20;;
69951;SDS011;60406;48.408;13.392;2022-11-24T16:29:51;7.18;;;2.63;;
69951;SDS011;60406;48.408;13.392;2022-11-24T16:35:12;6.55;;;4.28;;
69951;SDS011;60406;48.408;13.392;2022-11-24T16:40:13;4.00;;;1.92;;
69951;SDS011;60406;48.408;13.392;2022-11-24T16:45:14;4.57;;;2.72;;
69951;SDS011;60406;48.408;13.392;2022-11-24T16:50:36;8.30;;;4.25;;
69951;SDS011;60406;48.408;13.392;2022-11-24T16:55:37;13.68;;;9.90;;
69951;SDS011;60406;48.408;13.392;2022-11-24T17:00:37;9.88;;;6.63;;
69951;SDS011;60406;48.408;13.392;2022-11-24T17:05:59;11.57;;;5.88;;
69951;SDS011;60406;48.408;13.392;2022-11-24T17:11:04;12.32;;;7.05;;
69951;SDS011;60406;48.408;13.392;2022-11-24T17:16:28;10.90;;;4.90;;
69951;SDS011;60406;48.408;13.392;2022-11-24T17:21:29;16.38;;;6.78;;
69951;SDS011;60406;48.408;13.392;2022-11-24T17:26:30;12.43;;;6.45;;
69951;SDS011;60406;48.408;13.392;2022-11-24T17:31:32;11.20;;;7.00;;
69951;SDS011;60406;48.408;13.392;2022-11-24T17:36:33;16.25;;;9.57;;
69951;SDS011;60406;48.408;13.392;2022-11-24T17:41:34;20.65;;;14.15;;
69951;SDS011;60406;48.408;13.392;2022-11-24T17:46:35;11.15;;;6.47;;
69951;SDS011;60406;48.408;13.392;2022-11-24T17:51:35;8.98;;;5.75;;
69951;SDS011;60406;48.408;13.392;2022-11-24T17:56:36;11.77;;;6.72;;
69951;SDS011;60406;48.408;13.392;2022-11-24T18:01:37;12.73;;;7.35;;
69951;SDS011;60406;48.408;13.392;2022-11-24T18:06:58;13.85;;;8.60;;
69951;SDS011;60406;48.408;13.392;2022-11-24T18:11:59;11.35;;;6.80;;
69951;SDS011;60406;48.408;13.392;2022-11-24T18:17:00;12.35;;;6.20;;
69951;SDS011;60406;48.408;13.392;2022-11-24T18:22:21;9.73;;;6.88;;
69951;SDS011;60406;48.408;13.392;2022-11-24T18:27:22;11.95;;;4.60;;
69951;SDS011;60406;48.408;13.392;2022-11-24T18:32:23;5.65;;;4.03;;
69951;SDS011;60406;48.408;13.392;2022-11-24T18:37:44;12.98;;;5.97;;
69951;SDS011;60406;48.408;13.392;2022-11-24T18:42:45;13.43;;;9.32;;
69951;SDS011;60406;48.408;13.392;2022-11-24T18:47:46;36.88;;;24.75;;
69951;SDS011;60406;48.408;13.392;2022-11-24T18:52:47;21.58;;;16.50;;
69951;SDS011;60406;48.408;13.392;2022-11-24T18:57:48;45.28;;;33.22;;
69951;SDS011;60406;48.408;13.392;2022-11-24T19:02:49;38.45;;;28.95;;
69951;SDS011;60406;48.408;13.392;2022-11-24T19:07:50;23.77;;;17.33;;
69951;SDS011;60406;48.408;13.392;2022-11-24T19:12:51;24.48;;;17.13;;
69951;SDS011;60406;48.408;13.392;2022-11-24T19:17:52;8.45;;;5.30;;
69951;SDS011;60406;48.408;13.392;2022-11-24T19:22:53;9.93;;;5.95;;
69951;SDS011;60406;48.408;13.392;2022-11-24T19:28:14;15.77;;;8.77;;
69951;SDS011;60406;48.408;13.392;2022-11-24T19:33:15;43.00;;;25.98;;
69951;SDS011;60406;48.408;13.392;2022-11-24T19:38:16;48.50;;;34.08;;
69951;SDS011;60406;48.408;13.392;2022-11-24T19:43:38;28.90;;;19.85;;
69951;SDS011;60406;48.408;13.392;2022-11-24T19:48:40;16.48;;;9.80;;
69951;SDS011;60406;48.408;13.392;2022-11-24T19:53:42;12.55;;;8.07;;
69951;SDS011;60406;48.408;13.392;2022-11-24T19:59:04;17.85;;;11.45;;
69951;SDS011;60406;48.408;13.392;2022-11-24T20:04:06;14.70;;;7.80;;
69951;SDS011;60406;48.408;13.392;2022-11-24T20:09:28;12.13;;;9.40;;
69951;SDS011;60406;48.408;13.392;2022-11-24T20:14:49;19.15;;;11.35;;
69951;SDS011;60406;48.408;13.392;2022-11-24T20:19:50;14.57;;;11.57;;
69951;SDS011;60406;48.408;13.392;2022-11-24T20:24:51;12.18;;;9.38;;
69951;SDS011;60406;48.408;13.392;2022-11-24T20:30:12;20.95;;;14.02;;
69951;SDS011;60406;48.408;13.392;2022-11-24T20:35:13;13.23;;;8.88;;
69951;SDS011;60406;48.408;13.392;2022-11-24T20:40:14;13.25;;;6.10;;
69951;SDS011;60406;48.408;13.392;2022-11-24T20:45:35;13.25;;;5.38;;
69951;SDS011;60406;48.408;13.392;2022-11-24T20:50:36;9.68;;;5.13;;
69951;SDS011;60406;48.408;13.392;2022-11-24T20:55:37;11.55;;;6.68;;
69951;SDS011;60406;48.408;13.392;2022-11-24T21:00:38;11.85;;;7.85;;
69951;SDS011;60406;48.408;13.392;2022-11-24T21:05:39;13.85;;;6.85;;
69951;SDS011;60406;48.408;13.392;2022-11-24T21:10:40;13.88;;;8.02;;
69951;SDS011;60406;48.408;13.392;2022-11-24T21:15:40;19.88;;;10.15;;
69951;SDS011;60406;48.408;13.392;2022-11-24T21:21:02;23.35;;;14.57;;
69951;SDS011;60406;48.408;13.392;2022-11-24T21:26:03;19.35;;;7.45;;
69951;SDS011;60406;48.408;13.392;2022-11-24T21:31:06;10.10;;;6.55;;
69951;SDS011;60406;48.408;13.392;2022-11-24T21:36:09;11.23;;;6.80;;
69951;SDS011;60406;48.408;13.392;2022-11-24T21:41:11;14.60;;;5.93;;
69951;SDS011;60406;48.408;13.392;2022-11-24T21:46:32;13.75;;;6.30;;
69951;SDS011;60406;48.408;13.392;2022-11-24T21:51:33;8.95;;;5.22;;
69951;SDS011;60406;48.408;13.392;2022-11-24T21:56:34;35.05;;;22.10;;
69951;SDS011;60406;48.408;13.392;2022-11-24T22:01:35;15.98;;;9.52;;
69951;SDS011;60406;48.408;13.392;2022-11-24T22:06:36;8.35;;;5.93;;
69951;SDS011;60406;48.408;13.392;2022-11-24T22:11:37;10.50;;;4.40;;
69951;SDS011;60406;48.408;13.392;2022-11-24T22:16:38;9.80;;;4.45;;
69951;SDS011;60406;48.408;13.392;2022-11-24T22:21:59;10.20;;;6.07;;
69951;SDS011;60406;48.408;13.392;2022-11-24T22:27:00;10.57;;;4.40;;
69951;SDS011;60406;48.408;13.392;2022-11-24T22:32:01;6.20;;;3.83;;
69951;SDS011;60406;48.408;13.392;2022-11-24T22:37:22;5.95;;;3.75;;
69951;SDS011;60406;48.408;13.392;2022-11-24T22:42:23;7.47;;;4.10;;
69951;SDS011;60406;48.408;13.392;2022-11-24T22:47:24;9.80;;;4.03;;
69951;SDS011;60406;48.408;13.392;2022-11-24T22:52:45;16.38;;;7.75;;
69951;SDS011;60406;48.408;13.392;2022-11-24T22:57:46;14.93;;;7.22;;
69951;SDS011;60406;48.408;13.392;2022-11-24T23:02:47;8.18;;;4.70;;
69951;SDS011;60406;48.408;13.392;2022-11-24T23:07:48;9.23;;;5.10;;
69951;SDS011;60406;48.408;13.392;2022-11-24T23:12:49;12.05;;;5.03;;
69951;SDS011;60406;48.408;13.392;2022-11-24T23:17:50;7.75;;;5.07;;
69951;SDS011;60406;48.408;13.392;2022-11-24T23:22:51;10.65;;;5.13;;
69951;SDS011;60406;48.408;13.392;2022-11-24T23:27:52;9.43;;;4.90;;
69951;SDS011;60406;48.408;13.392;2022-11-24T23:32:53;9.55;;;5.10;;
69951;SDS011;60406;48.408;13.392;2022-11-24T23:37:54;12.80;;;5.03;;
69951;SDS011;60406;48.408;13.392;2022-11-24T23:43:15;10.98;;;4.60;;
69951;SDS011;60406;48.408;13.392;2022-11-24T23:48:16;11.50;;;5.25;;
69951;SDS011;60406;48.408;13.392;2022-11-24T23:53:17;18.40;;;6.80;;
69951;SDS011;60406;48.408;13.392;2022-11-24T23:58:38;9.73;;;6.47;;
